Time;durP1;ratioP1;P1;durP2;ratioP2;P2;SDS_P1;SDS_P2;PMS_P1;PMS_P2;Temp;Humidity;BMP_temperature;BMP_pressure;BME280_temperature;BME280_humidity;BME280_pressure;Samples;Min_cycle;Max_cycle;Signal;HPM_P1;HPM_P2
2022/05/09 00:00:06;;;;;;;2.83;1.13;;;;;;;21.10;49.81;101080.63;5081497;28;20034;-55
2022/05/09 00:02:31;;;;;;;2.03;1.15;;;;;;;21.11;50.01;101086.72;5083602;28;20867;-56
2022/05/09 00:04:58;;;;;;;2.70;1.15;;;;;;;21.10;50.18;101079.78;5084095;28;20056;-54
2022/05/09 00:07:23;;;;;;;2.42;1.10;;;;;;;21.09;49.89;101078.97;5081333;28;20025;-59
2022/05/09 00:09:49;;;;;;;5.18;1.40;;;;;;;21.10;49.76;101077.97;5082129;28;20086;-54
2022/05/09 00:12:14;;;;;;;2.15;0.98;;;;;;;21.09;50.29;101078.97;5080510;28;21303;-53
2022/05/09 00:14:40;;;;;;;1.52;0.88;;;;;;;21.09;50.10;101071.03;5080599;28;20036;-54
2022/05/09 00:17:05;;;;;;;1.67;1.17;;;;;;;21.09;50.21;101086.13;5086134;28;20024;-59
2022/05/09 00:19:31;;;;;;;3.45;1.10;;;;;;;21.07;50.29;101081.00;5087683;28;20028;-57
2022/05/09 00:21:57;;;;;;;1.88;0.82;;;;;;;21.08;50.06;101081.81;5088860;28;20195;-56
2022/05/09 00:24:23;;;;;;;1.63;1.08;;;;;;;21.07;49.99;101085.50;5082450;28;20433;-56
2022/05/09 00:26:51;;;;;;;1.20;0.80;;;;;;;21.07;50.19;101083.66;5086816;28;20090;-57
2022/05/09 00:29:20;;;;;;;1.80;0.95;;;;;;;21.07;49.89;101088.13;5085024;28;20032;-58
2022/05/09 00:31:48;;;;;;;2.67;0.93;;;;;;;21.06;50.05;101083.84;5089004;28;20044;-57
2022/05/09 00:34:18;;;;;;;1.83;0.90;;;;;;;21.05;50.31;101087.53;5089029;28;20028;-55
2022/05/09 00:36:46;;;;;;;3.35;1.05;;;;;;;21.04;50.20;101085.88;5089308;28;20039;-54
2022/05/09 00:39:12;;;;;;;2.03;1.10;;;;;;;21.04;50.44;101089.34;5086483;28;20085;-59
2022/05/09 00:41:39;;;;;;;2.75;1.20;;;;;;;21.04;50.42;101091.19;5087982;28;20134;-53
2022/05/09 00:44:09;;;;;;;1.65;1.15;;;;;;;21.03;50.19;101084.25;5069542;28;20037;-56
2022/05/09 00:46:38;;;;;;;1.48;0.90;;;;;;;21.03;50.25;101086.91;5086227;28;20114;-56
2022/05/09 00:49:20;;;;;;;3.25;1.10;;;;;;;21.01;50.32;101087.09;5089301;28;20081;-52
2022/05/09 00:51:53;;;;;;;1.50;1.02;;;;;;;21.02;50.36;101093.22;5089657;28;20040;-57
2022/05/09 00:54:19;;;;;;;1.50;0.98;;;;;;;21.01;50.61;101087.09;5085154;28;20062;-57
2022/05/09 00:56:55;;;;;;;2.55;0.93;;;;;;;21.01;49.92;101087.09;5088954;28;20562;-56
2022/05/09 00:59:21;;;;;;;;;;;;;;;20.93;50.36;101089.09;5088871;28;20047;-55
2022/05/09 01:01:47;;;;;;;;;;;;;;;20.86;50.49;101089.88;5086599;28;19923;-56
2022/05/09 01:04:18;;;;;;;1.20;1.08;;;;;;;20.93;50.54;101091.75;5084622;28;19930;-55
2022/05/09 01:06:44;;;;;;;1.98;1.52;;;;;;;20.97;50.29;101091.16;5087486;28;20036;-57
2022/05/09 01:09:12;;;;;;;1.45;1.13;;;;;;;20.99;50.26;101089.13;5083340;28;20027;-59
2022/05/09 01:11:42;;;;;;;1.40;1.00;;;;;;;21.01;50.61;101097.69;5087485;28;20044;-56
2022/05/09 01:14:13;;;;;;;2.45;1.08;;;;;;;21.01;50.25;101100.34;5084774;28;20117;-55
2022/05/09 01:16:39;;;;;;;1.80;0.90;;;;;;;21.01;50.39;101105.63;5085441;28;20818;-55
2022/05/09 01:19:26;;;;;;;1.50;0.85;;;;;;;20.98;50.14;101100.72;5088213;28;20032;-58
2022/05/09 01:21:52;;;;;;;2.50;1.25;;;;;;;21.01;50.45;101104.81;5085270;28;20440;-53
2022/05/09 01:24:20;;;;;;;2.25;1.10;;;;;;;21.01;50.09;101104.81;5085170;28;20321;-58
2022/05/09 01:26:46;;;;;;;1.70;1.42;;;;;;;21.02;50.31;101115.22;5085213;28;21199;-52
2022/05/09 01:29:21;;;;;;;3.13;1.30;;;;;;;21.02;50.15;101109.09;5087270;28;20036;-55
2022/05/09 01:31:49;;;;;;;1.58;1.05;;;;;;;21.02;50.24;101119.69;5063717;28;20043;-58
2022/05/09 01:34:16;;;;;;;4.68;1.52;;;;;;;21.03;50.46;101116.03;5086261;28;20040;-57
2022/05/09 01:36:42;;;;;;;1.10;1.00;;;;;;;21.03;50.44;101116.03;5068470;28;20052;-54
2022/05/09 01:39:11;;;;;;;1.63;1.15;;;;;;;21.04;50.38;101118.50;5086681;28;20024;-53
2022/05/09 01:41:45;;;;;;;5.22;1.00;;;;;;;21.03;50.37;101116.03;5085591;28;20106;-54
2022/05/09 01:44:13;;;;;;;3.10;1.40;;;;;;;21.03;50.47;101116.84;5083801;28;20024;-56
2022/05/09 01:49:30;;;;;;;1.25;1.00;;;;;;;21.03;50.14;101122.16;5086663;28;20051;-55
2022/05/09 01:51:57;;;;;;;1.85;1.08;;;;;;;21.03;50.36;101116.84;5086844;28;20020;-55
2022/05/09 01:54:23;;;;;;;1.63;1.50;;;;;;;21.02;50.35;101109.94;5085420;28;20341;-55
2022/05/09 01:56:48;;;;;;;2.20;1.05;;;;;;;21.03;50.24;101105.44;5084239;28;20043;-53
2022/05/09 01:59:15;;;;;;;1.63;0.80;;;;;;;21.01;50.02;101105.63;5084782;28;20404;-58
2022/05/09 02:01:44;;;;;;;1.67;1.10;;;;;;;21.02;50.10;101109.09;5083702;28;20114;-54
2022/05/09 02:04:11;;;;;;;1.35;0.93;;;;;;;21.02;50.43;101104.63;5078322;28;20024;-56
2022/05/09 02:06:37;;;;;;;2.00;1.23;;;;;;;21.02;50.21;101107.28;5087547;28;20031;-56
2022/05/09 02:09:03;;;;;;;4.68;1.27;;;;;;;21.03;50.12;101105.44;5087690;28;20414;-55
2022/05/09 02:11:29;;;;;;;1.98;1.27;;;;;;;21.03;50.25;101110.75;5196824;22;20066;-54
2022/05/09 02:13:54;;;;;;;1.85;0.88;;;;;;;21.02;50.13;101098.50;5086536;28;20035;-56
2022/05/09 02:16:20;;;;;;;1.52;0.95;;;;;;;21.01;50.35;101100.34;5088809;28;20020;-56
2022/05/09 02:18:45;;;;;;;1.42;1.08;;;;;;;21.02;50.11;101101.16;5088270;28;20073;-58
2022/05/09 02:21:11;;;;;;;1.20;0.95;;;;;;;21.02;50.35;101104.63;5088119;28;20028;-57
2022/05/09 02:23:36;;;;;;;1.63;0.95;;;;;;;21.01;50.17;101097.69;5088378;28;20217;-55
2022/05/09 02:26:02;;;;;;;1.35;0.95;;;;;;;21.01;50.07;101095.03;5088463;28;20020;-55
2022/05/09 02:28:29;;;;;;;1.42;1.08;;;;;;;21.01;50.01;101095.03;5088534;28;20459;-54
2022/05/09 02:30:55;;;;;;;1.05;0.80;;;;;;;21.00;50.07;101090.75;5088107;28;20524;-56
2022/05/09 02:33:20;;;;;;;1.75;1.10;;;;;;;20.99;50.04;101085.66;5088268;28;20047;-54
2022/05/09 02:35:47;;;;;;;1.75;1.13;;;;;;;20.99;49.99;101089.13;5087981;28;20487;-55
2022/05/09 02:38:12;;;;;;;1.90;1.02;;;;;;;20.98;50.26;101087.50;5088010;28;20036;-55
2022/05/09 02:40:38;;;;;;;2.47;0.90;;;;;;;20.99;50.26;101093.59;5087782;28;20031;-53
2022/05/09 02:43:04;;;;;;;2.00;1.05;;;;;;;20.97;50.12;101090.34;5087501;28;20032;-58
2022/05/09 02:45:30;;;;;;;3.05;0.88;;;;;;;20.96;50.10;101089.53;5087817;28;20077;-55
2022/05/09 02:47:56;;;;;;;2.17;1.17;;;;;;;20.96;50.33;101089.53;5087661;28;20032;-54
2022/05/09 02:50:23;;;;;;;1.52;0.90;;;;;;;20.96;50.20;101084.22;5087985;28;20030;-56
2022/05/09 02:52:50;;;;;;;1.50;0.85;;;;;;;20.96;50.26;101088.69;5087446;28;20442;-54
2022/05/09 02:55:17;;;;;;;1.80;0.90;;;;;;;20.95;50.37;101087.88;5087686;28;20358;-51
2022/05/09 02:57:43;;;;;;;1.88;1.35;;;;;;;20.94;50.17;101080.94;5087613;28;20417;-52
2022/05/09 03:00:13;;;;;;;2.50;1.08;;;;;;;20.94;50.16;101085.44;5088032;28;20032;-57
2022/05/09 03:02:39;;;;;;;1.25;1.15;;;;;;;20.94;50.42;101091.53;5087753;28;20368;-57
2022/05/09 03:05:07;;;;;;;2.28;1.02;;;;;;;20.94;50.03;101091.53;5087410;28;20110;-53
2022/05/09 03:07:33;;;;;;;1.60;1.17;;;;;;;20.93;50.40;101095.22;5087373;28;20036;-56
2022/05/09 03:09:59;;;;;;;1.45;1.08;;;;;;;20.93;50.27;101094.38;5087200;28;20028;-53
2022/05/09 03:12:24;;;;;;;2.38;1.10;;;;;;;20.94;50.45;101102.13;5087375;28;20055;-56
2022/05/09 03:14:50;;;;;;;1.65;0.75;;;;;;;20.93;50.52;101099.69;5087556;28;20187;-53
2022/05/09 03:17:16;;;;;;;1.38;1.20;;;;;;;20.94;50.16;101098.66;5087343;28;20055;-57
2022/05/09 03:19:42;;;;;;;1.23;1.05;;;;;;;20.94;50.36;101098.66;5087541;28;20531;-58
2022/05/09 03:22:08;;;;;;;1.40;0.90;;;;;;;20.95;50.37;101105.59;5087076;28;20100;-53
2022/05/09 03:24:34;;;;;;;2.55;1.60;;;;;;;20.95;50.49;101105.59;5087110;28;20093;-49
2022/05/09 03:27:02;;;;;;;1.45;0.88;;;;;;;20.95;50.39;101108.25;5087070;28;20036;-54
2022/05/09 03:29:28;;;;;;;1.50;1.00;;;;;;;20.94;50.58;101099.50;5087549;28;20031;-50
2022/05/09 03:31:54;;;;;;;2.65;0.82;;;;;;;20.96;50.11;101105.41;5086845;28;20034;-54
2022/05/09 03:34:19;;;;;;;2.05;1.33;;;;;;;20.96;50.49;101101.94;5086957;28;20139;-58
2022/05/09 03:36:45;;;;;;;2.38;0.70;;;;;;;20.97;50.21;101106.22;5086795;28;20028;-55
2022/05/09 03:39:11;;;;;;;2.28;1.20;;;;;;;20.96;50.19;101100.13;5086704;28;20497;-55
2022/05/09 03:41:37;;;;;;;2.13;1.00;;;;;;;20.97;50.40;101106.22;5086693;28;20408;-53
2022/05/09 03:44:03;;;;;;;1.10;0.85;;;;;;;20.96;50.49;101100.13;5086757;28;20035;-58
2022/05/09 03:46:29;;;;;;;1.35;1.25;;;;;;;20.97;50.14;101091.16;5086776;28;20395;-54
2022/05/09 03:48:54;;;;;;;2.20;1.08;;;;;;;20.96;50.11;101094.00;5087148;28;20052;-56
2022/05/09 03:51:20;;;;;;;1.92;0.93;;;;;;;20.98;50.18;101094.63;5086516;28;20158;-56
2022/05/09 03:53:45;;;;;;;2.20;1.00;;;;;;;20.96;50.22;101099.28;5086561;28;20024;-55
2022/05/09 03:56:12;;;;;;;1.30;0.80;;;;;;;20.96;50.60;101099.28;5086678;28;20032;-49
2022/05/09 03:58:38;;;;;;;2.00;1.20;;;;;;;20.96;50.10;101102.75;5086808;28;20034;-57
2022/05/09 04:01:04;;;;;;;1.83;1.10;;;;;;;20.96;50.37;101105.41;5086653;28;20028;-52
2022/05/09 04:03:30;;;;;;;1.33;1.00;;;;;;;20.96;50.37;101104.59;5086921;28;20047;-54
2022/05/09 04:05:57;;;;;;;1.45;0.93;;;;;;;20.95;50.25;101106.44;5086873;28;20028;-57
2022/05/09 04:08:22;;;;;;;3.33;1.00;;;;;;;20.95;50.30;101102.97;5087137;28;20028;-55
2022/05/09 04:10:51;;;;;;;1.40;0.90;;;;;;;20.94;50.38;101107.44;5086849;28;20604;-54
2022/05/09 04:13:17;;;;;;;3.60;0.90;;;;;;;20.93;50.33;101108.44;5078065;28;20128;-55
2022/05/09 04:18:43;;;;;;;2.05;0.98;;;;;;;20.91;50.42;101118.44;5087084;28;20214;-53
2022/05/09 04:21:11;;;;;;;1.52;1.00;;;;;;;20.92;50.52;101121.88;5086596;28;20036;-54
2022/05/09 04:23:38;;;;;;;3.60;1.15;;;;;;;20.92;50.43;101122.72;5086362;28;20475;-57
2022/05/09 04:26:05;;;;;;;1.27;0.88;;;;;;;20.93;50.05;101128.81;5086701;28;20024;-55
2022/05/09 04:28:31;;;;;;;1.98;1.25;;;;;;;20.95;50.42;101121.50;5086204;28;20039;-51
2022/05/09 04:30:57;;;;;;;2.83;1.33;;;;;;;20.97;51.25;101120.28;5086303;28;20032;-52
2022/05/09 04:33:22;;;;;;;2.80;1.90;;;;;;;21.04;51.83;101122.97;5086402;28;20361;-56
2022/05/09 04:35:48;;;;;;;7.85;4.03;;;;;;;21.11;54.32;101124.63;5082456;28;20089;-59
2022/05/09 04:38:22;;;;;;;6.70;2.78;;;;;;;21.11;53.68;101129.13;5085237;28;20035;-57
2022/05/09 04:40:51;;;;;;;5.18;1.90;;;;;;;21.09;53.14;101126.66;5079184;28;20467;-55
2022/05/09 04:43:19;;;;;;;1.77;1.30;;;;;;;21.08;53.03;101132.16;5084229;28;20039;-57
2022/05/09 04:45:45;;;;;;;4.30;1.35;;;;;;;21.04;52.51;101128.28;5084104;28;20112;-60
2022/05/09 04:48:10;;;;;;;3.97;1.25;;;;;;;21.03;51.93;101139.88;5086311;28;20111;-51
2022/05/09 04:50:36;;;;;;;4.28;1.60;;;;;;;21.01;52.30;101134.78;5085993;28;20556;-55
2022/05/09 04:53:02;;;;;;;2.88;1.30;;;;;;;21.02;52.36;101136.41;5082735;28;20028;-51
2022/05/09 04:55:28;;;;;;;2.92;1.20;;;;;;;21.02;52.09;101135.59;5064521;28;20082;-54
2022/05/09 04:57:53;;;;;;;3.00;1.30;;;;;;;21.02;52.11;101140.91;5084917;28;20116;-52
2022/05/09 05:00:22;;;;;;;5.13;1.48;;;;;;;21.01;52.22;101134.78;5083912;28;20260;-52
2022/05/09 05:02:48;;;;;;;7.43;1.83;;;;;;;21.00;52.16;101138.44;5085786;28;20093;-50
2022/05/09 05:05:13;;;;;;;4.93;1.08;;;;;;;20.99;52.09;101136.00;5086028;28;20024;-52
2022/05/09 05:07:39;;;;;;;2.35;1.23;;;;;;;20.98;52.00;101145.75;5089614;28;20036;-49
2022/05/09 05:10:05;;;;;;;2.60;1.05;;;;;;;20.99;51.70;101146.59;5089906;28;20115;-50
2022/05/09 05:12:31;;;;;;;2.25;1.30;;;;;;;20.97;51.75;101143.31;5089284;28;20247;-53
2022/05/09 05:14:57;;;;;;;1.55;1.10;;;;;;;20.96;51.48;101150.44;5089650;28;20039;-48
2022/05/09 05:17:22;;;;;;;1.55;0.90;;;;;;;20.96;51.71;101147.78;5089343;28;20483;-52
2022/05/09 05:19:49;;;;;;;3.35;1.00;;;;;;;20.95;51.38;101145.34;5089379;28;20020;-52
2022/05/09 05:22:15;;;;;;;1.60;1.17;;;;;;;20.96;51.33;101146.97;5089503;28;20043;-52
2022/05/09 05:24:44;;;;;;;3.60;0.98;;;;;;;20.95;51.47;101151.44;5088657;28;20051;-52
2022/05/09 05:27:11;;;;;;;4.75;1.30;;;;;;;20.95;51.27;101150.63;5088280;28;20081;-52
2022/05/09 05:29:36;;;;;;;3.15;1.40;;;;;;;20.96;51.72;101160.22;5089506;28;20379;-51
2022/05/09 05:32:17;;;;;;;2.72;1.02;;;;;;;20.95;51.28;101155.94;5088596;28;20024;-52
2022/05/09 05:34:42;;;;;;;2.65;0.90;;;;;;;20.97;51.35;101161.84;5087132;28;20025;-54
2022/05/09 05:37:08;;;;;;;2.15;1.38;;;;;;;20.97;50.97;101165.31;5088576;28;20032;-54
2022/05/09 05:39:36;;;;;;;2.00;0.73;;;;;;;20.99;51.39;101168.59;5085306;28;20493;-52
2022/05/09 05:42:03;;;;;;;2.95;1.33;;;;;;;20.99;51.43;101171.25;5086551;28;20044;-50
2022/05/09 05:44:29;;;;;;;1.98;1.10;;;;;;;20.99;50.98;101170.44;5087050;28;20446;-52
2022/05/09 05:46:54;;;;;;;2.70;0.93;;;;;;;21.00;51.26;101167.59;5086703;28;20032;-51
2022/05/09 05:49:20;;;;;;;1.42;1.15;;;;;;;21.00;51.09;101172.88;5089024;28;20092;-54
2022/05/09 05:51:45;;;;;;;2.88;1.00;;;;;;;21.00;51.02;101175.53;5088251;28;20028;-53
2022/05/09 05:54:11;;;;;;;1.65;1.05;;;;;;;21.01;51.08;101181.66;5085357;28;20085;-55
2022/05/09 05:56:37;;;;;;;2.03;1.00;;;;;;;21.00;51.23;101178.19;5086951;28;20039;-55
2022/05/09 05:59:04;;;;;;;1.65;1.13;;;;;;;21.00;50.89;101183.47;5088795;28;20024;-55
2022/05/09 06:01:30;;;;;;;2.40;1.30;;;;;;;20.99;51.08;101183.66;5086736;28;20050;-55
2022/05/09 06:03:55;;;;;;;1.48;1.13;;;;;;;20.99;51.39;101187.13;5087592;28;20028;-52
2022/05/09 06:06:21;;;;;;;1.50;1.30;;;;;;;20.96;51.25;101194.66;5085701;28;20077;-53
2022/05/09 06:08:48;;;;;;;1.83;1.05;;;;;;;20.96;50.76;101194.66;5087664;28;20024;-54
2022/05/09 06:11:13;;;;;;;3.25;1.30;;;;;;;20.97;51.17;101198.94;5086513;28;20395;-56
2022/05/09 06:13:40;;;;;;;1.92;1.50;;;;;;;20.99;51.97;101189.78;5088334;28;20090;-57
2022/05/09 06:16:06;;;;;;;6.20;1.80;;;;;;;21.06;52.26;101195.13;5085379;28;20111;-57
2022/05/09 06:18:31;;;;;;;4.80;2.33;;;;;;;21.10;52.54;101196.38;5088693;28;20123;-59
2022/05/09 06:20:57;;;;;;;4.47;2.08;;;;;;;21.08;52.93;101193.09;5086992;28;20445;-55
2022/05/09 06:23:23;;;;;;;1.73;1.25;;;;;;;21.07;52.76;101197.59;5086920;28;20032;-51
2022/05/09 06:25:48;;;;;;;9.45;1.70;;;;;;;21.05;52.62;101196.97;5086177;28;20048;-47
2022/05/09 06:28:15;;;;;;;3.85;0.85;;;;;;;21.06;52.89;101189.81;5088292;28;20035;-55
2022/05/09 06:30:42;;;;;;;2.50;0.95;;;;;;;21.04;53.10;101189.22;5087640;28;20032;-53
2022/05/09 06:33:08;;;;;;;3.45;1.02;;;;;;;21.02;53.09;101197.34;5087206;28;20093;-51
2022/05/09 06:35:40;;;;;;;4.63;1.45;;;;;;;21.02;53.14;101199.19;5087107;28;20028;-51
2022/05/09 06:38:06;;;;;;;3.63;1.15;;;;;;;21.02;52.72;101205.28;5086045;28;20039;-50
2022/05/09 06:40:33;;;;;;;2.13;1.30;;;;;;;21.02;52.76;101202.63;5085345;28;20059;-56
2022/05/09 06:42:59;;;;;;;3.92;1.20;;;;;;;21.02;52.61;101210.59;5087047;28;20109;-55
2022/05/09 06:45:26;;;;;;;1.70;0.90;;;;;;;21.04;52.82;101208.56;5084118;28;20134;-53
2022/05/09 06:47:54;;;;;;;2.55;1.25;;;;;;;21.05;52.61;101206.72;5085334;28;20467;-50
2022/05/09 06:50:21;;;;;;;4.25;0.98;;;;;;;21.03;52.69;101208.75;5087079;28;20032;-49
2022/05/09 06:52:47;;;;;;;3.25;0.70;;;;;;;21.04;52.68;101213.88;5084273;28;20027;-54
2022/05/09 06:55:14;;;;;;;2.83;0.88;;;;;;;21.03;52.63;101198.16;5085302;28;20044;-53
2022/05/09 06:57:41;;;;;;;2.65;0.90;;;;;;;21.03;52.18;101206.94;5079998;28;20031;-53
2022/05/09 07:00:11;;;;;;;6.53;1.65;;;;;;;21.02;52.47;101199.19;5086422;28;20036;-55
2022/05/09 07:02:37;;;;;;;3.85;1.77;;;;;;;20.99;52.91;101199.56;5084399;28;20123;-58
2022/05/09 07:05:08;;;;;;;6.07;1.70;;;;;;;20.99;52.99;101202.22;5085911;28;20122;-53
2022/05/09 07:07:33;;;;;;;2.85;1.48;;;;;;;20.99;52.87;101204.88;5085946;28;20035;-48
2022/05/09 07:09:59;;;;;;;2.80;1.30;;;;;;;21.02;53.48;101201.81;5086960;28;20066;-54
2022/05/09 07:12:24;;;;;;;2.47;1.50;;;;;;;21.01;53.28;101211.59;5083579;28;20044;-56
2022/05/09 07:14:50;;;;;;;3.53;1.80;;;;;;;21.01;53.02;101202.84;5085012;28;20555;-54
2022/05/09 07:17:16;;;;;;;3.03;0.95;;;;;;;21.00;52.79;101209.16;5067333;28;20118;-54
2022/05/09 07:19:41;;;;;;;3.38;1.58;;;;;;;21.01;52.55;101208.13;5084411;28;20028;-56
2022/05/09 07:22:07;;;;;;;4.80;2.00;;;;;;;21.01;52.86;101210.78;5084906;28;20491;-55
2022/05/09 07:24:32;;;;;;;2.95;1.23;;;;;;;21.00;52.42;101215.25;5087007;28;20328;-56
2022/05/09 07:26:58;;;;;;;5.13;1.30;;;;;;;21.01;52.74;101216.09;5081179;28;20087;-54
2022/05/09 07:29:24;;;;;;;4.65;1.27;;;;;;;21.01;52.42;101219.56;5085176;28;20087;-51
2022/05/09 07:31:49;;;;;;;5.28;1.52;;;;;;;21.00;52.76;101220.56;5085304;28;20027;-46
2022/05/09 07:34:15;;;;;;;4.13;1.67;;;;;;;20.99;52.70;101221.56;5086890;28;20028;-53
2022/05/09 07:36:41;;;;;;;4.28;1.20;;;;;;;21.02;52.60;101228.31;5085036;28;20121;-48
2022/05/09 07:39:07;;;;;;;13.73;1.20;;;;;;;21.03;52.61;101227.31;5067025;28;20036;-47
2022/05/09 07:41:33;;;;;;;11.93;2.00;;;;;;;21.03;52.67;101227.31;5085501;28;20516;-52
2022/05/09 07:43:59;;;;;;;8.13;1.25;;;;;;;21.02;52.91;101229.13;5081433;28;20040;-48
2022/05/09 07:46:24;;;;;;;11.45;1.85;;;;;;;21.05;52.62;101227.94;5084575;28;20039;-52
2022/05/09 07:48:50;;;;;;;7.53;1.73;;;;;;;21.07;52.57;101233.84;5085600;28;20113;-54
2022/05/09 07:51:16;;;;;;;14.10;1.95;;;;;;;21.08;52.62;101228.34;5086564;28;20048;-55
2022/05/09 07:53:41;;;;;;;4.95;1.52;;;;;;;21.08;52.48;101232.84;5086108;28;20024;-56
2022/05/09 07:56:07;;;;;;;5.50;1.83;;;;;;;21.09;52.09;101234.47;5087099;28;20028;-55
2022/05/09 07:58:33;;;;;;;3.55;1.60;;;;;;;21.08;52.34;101232.84;5081056;28;20348;-52
2022/05/09 08:01:00;;;;;;;4.55;1.88;;;;;;;21.09;51.89;101234.47;5066258;28;20055;-51
2022/05/09 08:03:29;;;;;;;7.90;2.00;;;;;;;21.08;51.78;101231.00;5084372;28;20032;-59
2022/05/09 08:05:56;;;;;;;5.30;2.22;;;;;;;21.06;51.21;101238.34;5086595;28;20047;-59
2022/05/09 08:08:22;;;;;;;6.00;2.05;;;;;;;21.05;50.37;101238.53;5083839;28;20530;-58
2022/05/09 08:10:48;;;;;;;4.72;2.42;;;;;;;21.05;50.04;101244.66;5086021;28;20115;-58
2022/05/09 08:13:17;;;;;;;3.58;1.92;;;;;;;21.03;50.21;101245.84;5082719;28;20356;-50
2022/05/09 08:15:45;;;;;;;4.07;1.73;;;;;;;21.03;50.75;101244.03;5083852;28;20032;-59
2022/05/09 08:18:13;;;;;;;6.30;2.33;;;;;;;21.05;51.06;101241.19;5083749;28;20078;-51
2022/05/09 08:20:40;;;;;;;10.18;2.40;;;;;;;21.06;50.84;101242.81;5066173;28;20074;-58
2022/05/09 08:23:11;;;;;;;2.15;1.95;;;;;;;21.05;50.53;101230.56;5066690;28;20052;-54
2022/05/09 08:25:39;;;;;;;3.95;2.40;;;;;;;21.05;50.39;101241.19;5085929;28;20031;-47
2022/05/09 08:28:07;;;;;;;4.60;2.13;;;;;;;21.06;50.11;101237.50;5085052;28;20059;-57
2022/05/09 08:30:34;;;;;;;4.40;2.25;;;;;;;21.07;50.20;101239.16;5079824;28;20040;-54
2022/05/09 08:33:06;;;;;;;5.97;2.60;;;;;;;21.06;50.14;101238.34;5083574;28;20064;-53
2022/05/09 08:35:33;;;;;;;3.30;2.10;;;;;;;21.06;50.31;101233.03;5082126;28;20032;-53
2022/05/09 08:37:58;;;;;;;3.55;1.70;;;;;;;21.07;50.84;101229.38;5086083;28;20077;-54
2022/05/09 08:40:34;;;;;;;5.90;2.22;;;;;;;21.05;50.89;101231.41;5087609;28;20036;-61
2022/05/09 08:43:24;;;;;;;2.55;1.95;;;;;;;21.04;49.88;101234.25;5090060;28;20170;-56
2022/05/09 08:46:04;;;;;;;5.00;1.77;;;;;;;21.00;49.38;101233.81;5088955;28;20503;-57
2022/05/09 08:48:47;;;;;;;2.60;1.52;;;;;;;21.01;49.78;101232.78;5090116;28;20118;-55
2022/05/09 08:51:51;;;;;;;3.72;1.90;;;;;;;20.99;49.29;101239.31;5095104;28;20457;-59
2022/05/09 08:54:21;;;;;;;3.40;1.83;;;;;;;21.01;49.63;101237.28;5108928;28;20031;-59
2022/05/09 08:56:51;;;;;;;2.63;2.05;;;;;;;21.03;49.40;101237.91;5110584;28;20024;-57
2022/05/09 08:59:26;;;;;;;3.10;1.58;;;;;;;21.04;48.92;101237.72;5109682;28;20031;-58
2022/05/09 09:02:09;;;;;;;3.70;2.05;;;;;;;21.05;49.08;101238.53;5069797;28;20384;-57
2022/05/09 09:04:36;;;;;;;3.33;1.80;;;;;;;21.05;49.12;101238.53;5080627;28;20040;-57
2022/05/09 09:07:28;;;;;;;4.57;1.85;;;;;;;21.02;49.07;101236.25;5089402;28;20103;-56
2022/05/09 09:10:02;;;;;;;5.20;1.88;;;;;;;21.04;48.89;101237.72;5089157;28;20028;-58
2022/05/09 09:12:44;;;;;;;3.95;2.17;;;;;;;21.04;48.67;101242.19;5089663;28;20573;-51
2022/05/09 09:15:26;;;;;;;3.70;2.35;;;;;;;21.04;49.21;101240.34;5088528;28;20083;-61
2022/05/09 09:18:03;;;;;;;2.50;1.60;;;;;;;21.05;49.09;101234.03;5089356;28;20024;-54
2022/05/09 09:20:32;;;;;;;4.22;2.10;;;;;;;21.05;49.23;101239.34;5089269;28;20510;-61
2022/05/09 09:23:16;;;;;;;5.20;2.15;;;;;;;21.07;49.04;101233.84;5088613;28;20582;-63
2022/05/09 09:25:50;;;;;;;3.60;1.98;;;;;;;21.05;49.01;101238.53;5089142;28;20055;-56
2022/05/09 09:28:23;;;;;;;2.55;1.77;;;;;;;21.07;49.25;101239.97;5089560;28;20414;-59
2022/05/09 09:30:50;;;;;;;3.05;1.55;;;;;;;21.08;49.41;101246.09;5088863;28;20451;-58
2022/05/09 09:33:19;;;;;;;2.80;1.48;;;;;;;21.09;49.48;101245.06;5089213;28;20115;-59
2022/05/09 09:36:05;;;;;;;2.75;1.80;;;;;;;21.13;49.38;101243.69;5089429;28;20394;-55
2022/05/09 09:38:46;;;;;;;3.55;2.20;;;;;;;21.13;49.00;101241.84;5088144;28;20059;-57
2022/05/09 09:41:18;;;;;;;2.72;1.95;;;;;;;21.13;49.26;101244.50;5068513;28;20056;-61
2022/05/09 09:43:46;;;;;;;2.97;1.85;;;;;;;21.16;49.21;101240.63;5069103;28;20101;-61
2022/05/09 09:46:12;;;;;;;4.63;2.42;;;;;;;21.18;49.45;101243.91;5088875;28;20032;-58
2022/05/09 09:48:37;;;;;;;5.38;1.98;;;;;;;21.20;49.34;101239.25;5087816;28;20023;-52
2022/05/09 09:51:17;;;;;;;2.63;2.08;;;;;;;21.22;49.49;101237.25;5088836;28;20112;-62
2022/05/09 09:53:52;;;;;;;3.00;2.15;;;;;;;21.23;49.41;101233.59;5087674;28;20428;-54
2022/05/09 09:56:20;;;;;;;4.97;1.90;;;;;;;21.24;49.83;101237.88;5089004;28;20024;-63
2022/05/09 09:58:48;;;;;;;3.38;1.85;;;;;;;21.26;49.84;101235.84;5092386;28;20110;-60
2022/05/09 10:01:22;;;;;;;2.42;2.17;;;;;;;21.31;49.46;101235.22;5080398;28;20383;-59
2022/05/09 10:04:05;;;;;;;3.10;1.80;;;;;;;21.30;49.24;101242.34;5087649;28;20024;-60
2022/05/09 10:06:31;;;;;;;4.35;2.03;;;;;;;21.34;49.28;101237.47;5088519;28;20024;-65
2022/05/09 10:09:06;;;;;;;2.63;1.80;;;;;;;21.35;49.27;101241.78;5088592;28;20030;-61
2022/05/09 10:11:32;;;;;;;5.57;2.33;;;;;;;21.37;49.53;101234.44;5088300;28;20032;-59
2022/05/09 10:14:01;;;;;;;2.42;2.03;;;;;;;21.37;49.06;101232.59;5087340;28;20051;-66
2022/05/09 10:16:33;;;;;;;3.33;1.60;;;;;;;21.38;48.98;101228.94;5088452;28;20522;-59
2022/05/09 10:19:01;;;;;;;2.53;2.33;;;;;;;21.39;49.32;101230.59;5088434;28;20064;-55
2022/05/09 10:24:48;;;;;;;4.43;2.33;;;;;;;21.29;49.77;101232.78;5086643;28;20101;-56
2022/05/09 10:27:20;;;;;;;3.50;2.00;;;;;;;21.29;49.90;101232.78;5088321;28;20028;-61
2022/05/09 10:29:47;;;;;;;6.63;2.40;;;;;;;21.28;49.96;101230.31;5087450;28;20035;-62
2022/05/09 10:32:15;;;;;;;4.72;2.28;;;;;;;21.28;49.59;101230.31;5088279;28;20038;-60
2022/05/09 10:34:56;;;;;;;4.65;2.50;;;;;;;21.26;49.64;101227.06;5069012;28;20039;-49
2022/05/09 10:37:38;;;;;;;3.55;2.97;;;;;;;21.26;49.91;101227.88;5070713;28;20063;-58
2022/05/09 10:40:18;;;;;;;4.72;2.53;;;;;;;21.28;49.98;101225.84;5088457;28;20043;-55
2022/05/09 10:42:53;;;;;;;3.53;2.15;;;;;;;21.30;50.00;101223.81;5088084;28;20178;-60
2022/05/09 10:45:24;;;;;;;3.10;2.15;;;;;;;21.33;50.33;101225.25;5085936;28;20036;-62
2022/05/09 10:47:58;;;;;;;6.00;2.42;;;;;;;21.32;50.07;101221.78;5087914;28;20128;-62
2022/05/09 10:50:38;;;;;;;16.95;15.45;;;;;;;21.35;51.26;101220.56;5085105;28;20559;-59
2022/05/09 10:53:21;;;;;;;147.48;133.18;;;;;;;21.44;51.24;101219.38;5087655;28;20426;-62
2022/05/09 10:56:03;;;;;;;65.95;59.35;;;;;;;21.47;51.09;101209.22;5069508;28;20183;-55
2022/05/09 10:58:46;;;;;;;50.63;45.17;;;;;;;21.46;52.11;101212.88;5086173;28;20074;-68
2022/05/09 11:01:28;;;;;;;39.20;32.78;;;;;;;21.49;52.92;101207.19;5087670;28;20447;-62
2022/05/09 11:03:55;;;;;;;27.20;24.67;;;;;;;21.52;53.21;101206.78;5083047;28;20036;-55
2022/05/09 11:06:47;;;;;;;22.25;20.05;;;;;;;21.61;56.00;101206.63;5087415;28;20111;-57
2022/05/09 11:09:12;;;;;;;22.48;20.17;;;;;;;21.68;54.97;101204.81;5028410;28;20106;-59
2022/05/09 11:11:56;;;;;;;18.80;15.30;;;;;;;21.87;56.31;101204.03;5080983;28;20039;-58
2022/05/09 11:14:40;;;;;;;15.85;14.00;;;;;;;22.12;56.03;101191.88;5084781;28;20032;-59
2022/05/09 11:17:22;;;;;;;41.50;16.95;;;;;;;22.41;60.17;101190.63;5086933;28;20042;-62
2022/05/09 11:20:02;;;;;;;19.52;17.52;;;;;;;22.65;65.80;101191.88;5087352;28;20309;-56
2022/05/09 11:22:47;;;;;;;12.95;11.55;;;;;;;22.76;62.97;101188.56;5081892;28;20133;-58
2022/05/09 11:25:45;;;;;;;5.07;4.57;;;;;;;22.65;59.39;101185.72;5084363;28;20043;-59
2022/05/09 11:28:16;;;;;;;7.93;6.70;;;;;;;22.72;61.97;101178.53;5001547;28;20620;-59
2022/05/09 11:30:48;;;;;;;11.20;7.32;;;;;;;22.82;62.31;101187.75;4984131;28;20048;-60
2022/05/09 11:33:35;;;;;;;7.40;4.57;;;;;;;22.70;59.41;101176.09;5000915;28;20034;-55
2022/05/09 11:36:29;;;;;;;4.97;3.83;;;;;;;22.55;57.22;101174.72;5000052;28;20044;-53
2022/05/09 11:39:21;;;;;;;4.30;3.53;;;;;;;22.44;55.44;101176.13;5001462;28;20076;-58
2022/05/09 11:41:46;;;;;;;5.65;3.42;;;;;;;22.39;55.06;101163.47;5003250;28;20148;-53